createdAt,value
2022-07-25T00:08:00.385Z,18
2022-07-25T00:18:06.784Z,23
2022-07-25T00:28:12.269Z,20
2022-07-25T00:38:17.091Z,16
2022-07-25T00:48:22.801Z,17
2022-07-25T00:58:29.215Z,16
2022-07-25T01:08:36.278Z,20
2022-07-25T01:18:41.708Z,28
2022-07-25T01:28:44.418Z,26
2022-07-25T01:38:51.042Z,21
2022-07-25T01:48:58.246Z,19
2022-07-25T01:59:03.697Z,18
2022-07-25T02:09:09.124Z,17
2022-07-25T02:19:13.224Z,18
2022-07-25T02:29:17.500Z,19
2022-07-25T02:39:21.705Z,17
2022-07-25T02:49:28.706Z,18
2022-07-25T02:59:34.037Z,18
2022-07-25T03:09:41.732Z,16
2022-07-25T03:19:45.793Z,17
2022-07-25T03:29:50.077Z,21
2022-07-25T03:39:54.893Z,19
2022-07-25T03:50:00.852Z,16
2022-07-25T04:00:07.474Z,20
2022-07-25T04:10:19.609Z,16
2022-07-25T04:20:21.223Z,15
2022-07-25T04:30:24.785Z,18
2022-07-25T04:40:28.857Z,16
2022-07-25T04:50:34.534Z,18
2022-07-25T05:00:38.941Z,18
2022-07-25T05:10:42.687Z,17
2022-07-25T05:20:47.656Z,16
2022-07-25T05:30:52.293Z,16
2022-07-25T05:40:57.707Z,20
2022-07-25T05:51:03.787Z,23
2022-07-25T06:01:07.292Z,21
2022-07-25T06:51:35.309Z,27
2022-07-25T07:01:39.786Z,43
2022-07-25T07:11:46.801Z,53
2022-07-25T07:22:02.867Z,31
2022-07-25T07:32:08.174Z,27
2022-07-25T07:42:14.228Z,19
2022-07-25T07:52:19.502Z,47
2022-07-25T08:02:26.657Z,17
2022-07-25T08:12:31.675Z,16
2022-07-25T08:22:36.689Z,20
2022-07-25T08:32:41.817Z,19
2022-07-25T08:42:52.635Z,17
2022-07-25T08:53:04.826Z,17
2022-07-25T09:03:24.450Z,14
2022-07-25T09:13:29.551Z,14
2022-07-25T09:23:33.662Z,18
2022-07-25T09:33:40.598Z,19
2022-07-25T09:43:46.363Z,16
2022-07-25T09:53:52.353Z,14
2022-07-25T10:03:56.538Z,15
2022-07-25T10:14:00.757Z,13
2022-07-25T10:24:06.087Z,13
2022-07-25T10:34:12.920Z,10
2022-07-25T10:44:24.099Z,13
2022-07-25T10:54:44.676Z,11
2022-07-25T11:04:51.895Z,11
2022-07-25T11:14:56.514Z,12
2022-07-25T11:25:02.354Z,10
2022-07-25T11:35:10.405Z,13
2022-07-25T11:45:21.272Z,10
2022-07-25T11:55:21.883Z,11
2022-07-25T12:05:28.302Z,12
2022-07-25T12:15:34.936Z,13
2022-07-25T12:25:40.592Z,10
2022-07-25T12:35:46.592Z,11
2022-07-25T12:45:52.212Z,10
2022-07-25T12:55:59.408Z,12
2022-07-25T13:06:04.968Z,10
2022-07-25T13:16:11.857Z,11
2022-07-25T13:26:18.269Z,10
2022-07-25T13:36:26.998Z,12
2022-07-25T13:46:31.022Z,11
2022-07-25T13:56:34.729Z,11
2022-07-25T14:06:40.953Z,11
2022-07-25T14:16:45.979Z,11
2022-07-25T14:26:51.380Z,11
2022-07-25T14:36:56.703Z,9
2022-07-25T14:47:01.698Z,12
2022-07-25T14:57:08.192Z,12
2022-07-25T15:07:16.228Z,14
2022-07-25T15:17:21.425Z,14
2022-07-25T15:28:10.832Z,14
2022-07-25T15:38:16.711Z,11
2022-07-25T15:48:26.477Z,11
2022-07-25T15:58:28.401Z,13
2022-07-25T16:08:33.080Z,12
2022-07-25T16:18:44.713Z,11
2022-07-25T16:28:46.065Z,11
2022-07-25T16:38:50.691Z,11
2022-07-25T16:48:55.080Z,11
2022-07-25T16:59:01.223Z,10
2022-07-25T17:09:06.356Z,10
2022-07-25T17:19:11.564Z,13
2022-07-25T17:29:17.053Z,12
2022-07-25T17:39:21.924Z,10
2022-07-25T17:49:27.851Z,13
2022-07-25T17:59:34.590Z,13
2022-07-25T18:09:39.037Z,11
2022-07-25T18:19:45.693Z,14
2022-07-25T18:29:51.493Z,10
2022-07-25T18:39:58.202Z,14
2022-07-25T18:50:06.063Z,11
2022-07-25T19:00:09.014Z,12
2022-07-25T19:10:14.040Z,11
2022-07-25T19:20:19.101Z,12
2022-07-25T19:30:26.113Z,13
2022-07-25T19:40:31.185Z,13
2022-07-25T19:50:38.015Z,13
2022-07-25T20:00:43.450Z,13
2022-07-25T20:20:53.432Z,12
2022-07-25T20:31:05.141Z,14
2022-07-25T21:11:20.995Z,12
2022-07-25T21:21:25.897Z,17
2022-07-25T21:31:30.944Z,24
2022-07-25T21:41:35.973Z,13
2022-07-25T21:52:13.277Z,14
2022-07-25T22:02:06.407Z,12
2022-07-25T22:12:28.401Z,15
2022-07-25T22:22:20.501Z,13
2022-07-25T22:32:28.898Z,14
2022-07-25T22:42:34.172Z,13
2022-07-25T22:52:41.511Z,16
2022-07-25T23:02:47.857Z,13
2022-07-25T23:12:54.131Z,12
2022-07-25T23:22:58.310Z,10
2022-07-25T23:33:03.229Z,9
2022-07-25T23:43:10.271Z,12
2022-07-25T23:53:15.939Z,9
